Time;durP1;ratioP1;P1;durP2;ratioP2;P2;SDS_P1;SDS_P2;PMS_P1;PMS_P2;Temp;Humidity;BMP_temperature;BMP_pressure;BME280_temperature;BME280_humidity;BME280_pressure;Samples;Min_cycle;Max_cycle;Signal;HPM_P1;HPM_P2
2022/04/27 00:00:24;;;;;;;;;;;17.30;64.80;;;;;;2029457;28;20256;-64
2022/04/27 00:01:22;;;;;;;;;;;17.30;64.90;;;;;;2029634;28;20064;-64
2022/04/27 00:02:21;;;;;;;;;;;17.20;64.90;;;;;;2029685;28;20056;-65
2022/04/27 00:03:19;;;;;;;;;;;17.20;64.80;;;;;;2029494;28;19904;-65
2022/04/27 00:04:18;;;;;;;;;;;17.20;64.90;;;;;;2029528;28;19912;-65
2022/04/27 00:05:17;;;;;;;;;;;17.20;65.00;;;;;;2029282;28;19959;-63
2022/04/27 00:06:16;;;;;;;;;;;17.30;65.00;;;;;;2029372;28;19994;-63
2022/04/27 00:07:14;;;;;;;;;;;17.30;65.20;;;;;;2029503;28;19904;-64
2022/04/27 00:08:13;;;;;;;;;;;17.20;65.20;;;;;;2029573;28;19912;-64
2022/04/27 00:09:14;;;;;;;;;;;17.20;65.00;;;;;;2029464;28;20370;-64
2022/04/27 00:10:12;;;;;;;;;;;17.20;64.70;;;;;;2029034;28;20267;-65
2022/04/27 00:11:11;;;;;;;;;;;17.20;64.60;;;;;;2029284;28;19904;-65
2022/04/27 00:12:09;;;;;;;;;;;17.20;64.70;;;;;;2029285;28;19927;-64
2022/04/27 00:13:13;;;;;;;;;;;17.30;64.80;;;;;;2029438;28;19912;-65
2022/04/27 00:14:11;;;;;;;;;;;17.20;64.90;;;;;;2029485;28;19905;-65
2022/04/27 00:15:10;;;;;;;;;;;17.20;64.70;;;;;;2029282;28;19904;-64
2022/04/27 00:16:08;;;;;;;;;;;17.20;65.40;;;;;;2029439;28;19904;-64
2022/04/27 00:17:07;;;;;;;;;;;17.20;65.00;;;;;;2029295;28;19991;-64
2022/04/27 00:18:05;;;;;;;;;;;17.20;64.80;;;;;;2029336;28;19911;-66
2022/04/27 00:19:04;;;;;;;;;;;17.20;65.10;;;;;;2029320;28;19912;-65
2022/04/27 00:20:03;;;;;;;;;;;17.20;64.90;;;;;;2029162;28;19904;-65
2022/04/27 00:21:01;;;;;;;;;;;17.20;65.10;;;;;;2029262;28;19950;-64
2022/04/27 00:22:00;;;;;;;;;;;17.20;64.80;;;;;;2029216;28;19904;-64
2022/04/27 00:22:58;;;;;;;;;;;17.20;64.70;;;;;;2029270;28;20240;-64
2022/04/27 00:23:57;;;;;;;;;;;17.20;64.60;;;;;;2029060;28;19904;-64
2022/04/27 00:25:00;;;;;;;;;;;17.20;64.80;;;;;;2029229;28;19904;-65
2022/04/27 00:25:58;;;;;;;;;;;17.20;65.30;;;;;;2029229;28;19905;-66
2022/04/27 00:26:57;;;;;;;;;;;17.20;64.40;;;;;;2029185;28;19904;-64
2022/04/27 00:27:55;;;;;;;;;;;17.20;64.40;;;;;;2029170;28;20298;-64
2022/04/27 00:28:53;;;;;;;;;;;17.10;64.40;;;;;;2029059;28;19908;-64
2022/04/27 00:29:52;;;;;;;;;;;17.20;64.30;;;;;;2029095;28;19904;-65
2022/04/27 00:30:50;;;;;;;;;;;17.20;64.40;;;;;;2029251;28;19911;-64
2022/04/27 00:31:49;;;;;;;;;;;17.20;64.30;;;;;;2029054;28;19943;-65
2022/04/27 00:32:47;;;;;;;;;;;17.20;64.20;;;;;;2029115;28;19905;-65
2022/04/27 00:33:45;;;;;;;;;;;17.20;64.20;;;;;;2029149;28;19905;-66
2022/04/27 00:34:44;;;;;;;;;;;17.20;64.40;;;;;;2029109;28;19904;-64
2022/04/27 00:35:43;;;;;;;;;;;17.20;64.00;;;;;;2028303;28;20302;-65
2022/04/27 00:36:41;;;;;;;;;;;17.20;64.50;;;;;;2028458;28;19904;-65
2022/04/27 00:37:40;;;;;;;;;;;17.20;64.20;;;;;;2029086;28;19908;-65
2022/04/27 00:38:38;;;;;;;;;;;17.20;64.20;;;;;;2029232;28;20003;-64
2022/04/27 00:39:37;;;;;;;;;;;17.20;64.10;;;;;;2029137;28;19912;-64
2022/04/27 00:40:35;;;;;;;;;;;17.10;64.20;;;;;;2029120;28;20032;-65
2022/04/27 00:41:33;;;;;;;;;;;17.10;64.20;;;;;;2029071;28;19954;-66
2022/04/27 00:42:32;;;;;;;;;;;17.10;64.00;;;;;;2029181;28;19951;-64
2022/04/27 00:43:41;;;;;;;;;;;17.10;64.20;;;;;;2029078;28;19905;-64
2022/04/27 00:44:43;;;;;;;;;;;17.10;66.10;;;;;;2029066;28;20000;-64
2022/04/27 00:45:42;;;;;;;;;;;17.10;64.50;;;;;;2029222;28;19904;-64
2022/04/27 00:46:40;;;;;;;;;;;17.10;64.00;;;;;;2028737;28;20003;-66
2022/04/27 00:47:39;;;;;;;;;;;17.10;64.10;;;;;;2029128;28;19905;-64
2022/04/27 00:48:41;;;;;;;;;;;17.10;64.30;;;;;;2029008;28;19909;-64
2022/04/27 00:49:41;;;;;;;;;;;17.10;64.30;;;;;;2029318;28;19979;-64
2022/04/27 00:50:39;;;;;;;;;;;17.10;64.10;;;;;;2029090;28;19905;-65
2022/04/27 00:51:38;;;;;;;;;;;17.10;64.00;;;;;;2029069;28;19943;-65
2022/04/27 00:52:37;;;;;;;;;;;17.10;64.20;;;;;;2029089;28;19914;-64
2022/04/27 00:53:37;;;;;;;;;;;17.10;64.00;;;;;;2029022;28;19904;-64
2022/04/27 00:54:35;;;;;;;;;;;17.10;64.00;;;;;;2029082;28;19904;-65
2022/04/27 00:55:34;;;;;;;;;;;17.10;64.00;;;;;;2029065;28;19914;-65
2022/04/27 00:56:32;;;;;;;;;;;17.10;64.00;;;;;;2028946;28;19912;-64
2022/04/27 00:57:31;;;;;;;;;;;16.90;64.10;;;;;;2028935;28;19912;-65
2022/04/27 00:58:29;;;;;;;;;;;17.10;64.30;;;;;;2028867;28;20280;-64
2022/04/27 00:59:28;;;;;;;;;;;17.10;64.20;;;;;;2028954;28;19957;-65
2022/04/27 01:00:27;;;;;;;;;;;17.20;64.50;;;;;;2028959;28;19940;-64
2022/04/27 01:01:25;;;;;;;;;;;17.00;64.30;;;;;;2029298;28;19912;-64
2022/04/27 01:02:23;;;;;;;;;;;17.10;64.30;;;;;;2029026;28;19920;-64
2022/04/27 01:03:22;;;;;;;;;;;17.10;64.20;;;;;;2028956;28;20307;-64
2022/04/27 01:04:21;;;;;;;;;;;17.10;64.30;;;;;;2028984;28;19957;-65
2022/04/27 01:05:21;;;;;;;;;;;17.10;64.10;;;;;;2028899;28;19908;-64
2022/04/27 01:06:21;;;;;;;;;;;17.10;64.20;;;;;;2028852;28;20089;-65
2022/04/27 01:07:19;;;;;;;;;;;17.10;64.20;;;;;;2029156;28;19911;-65
2022/04/27 01:08:19;;;;;;;;;;;17.10;64.20;;;;;;2028845;28;20279;-64
2022/04/27 01:09:18;;;;;;;;;;;17.00;64.20;;;;;;2029205;28;19912;-64
2022/04/27 01:10:16;;;;;;;;;;;17.10;64.20;;;;;;2028776;28;19944;-64
2022/04/27 01:11:15;;;;;;;;;;;17.10;64.30;;;;;;2028761;28;19912;-64
2022/04/27 01:12:15;;;;;;;;;;;17.10;65.00;;;;;;2028969;28;19958;-64
2022/04/27 01:13:13;;;;;;;;;;;17.00;64.50;;;;;;2028970;28;19919;-64
2022/04/27 01:14:12;;;;;;;;;;;17.00;64.10;;;;;;2029153;28;19962;-64
2022/04/27 01:15:10;;;;;;;;;;;17.10;64.30;;;;;;2028872;28;19905;-64
2022/04/27 01:16:10;;;;;;;;;;;17.00;63.90;;;;;;2029030;28;19904;-65
2022/04/27 01:17:09;;;;;;;;;;;17.00;64.20;;;;;;2028816;28;19904;-64
2022/04/27 01:18:11;;;;;;;;;;;17.10;64.40;;;;;;2029116;28;20390;-64
2022/04/27 01:19:09;;;;;;;;;;;17.00;64.20;;;;;;2028830;28;19908;-65
2022/04/27 01:20:08;;;;;;;;;;;17.00;64.10;;;;;;2028951;28;19904;-65
2022/04/27 01:21:07;;;;;;;;;;;17.10;64.50;;;;;;2029026;28;20260;-64
2022/04/27 01:22:05;;;;;;;;;;;17.00;64.10;;;;;;2027979;28;19912;-68
2022/04/27 01:23:05;;;;;;;;;;;17.00;64.10;;;;;;2028738;28;19908;-64
2022/04/27 01:24:04;;;;;;;;;;;17.00;64.40;;;;;;2028817;28;20128;-64
2022/04/27 01:25:03;;;;;;;;;;;16.80;63.90;;;;;;2028886;28;19904;-64
2022/04/27 01:26:05;;;;;;;;;;;17.00;64.40;;;;;;2029054;28;20274;-64
2022/04/27 01:27:04;;;;;;;;;;;17.00;64.30;;;;;;2028845;28;19908;-64
2022/04/27 01:28:02;;;;;;;;;;;17.00;64.50;;;;;;2028802;28;19908;-64
2022/04/27 01:29:01;;;;;;;;;;;17.00;64.40;;;;;;2028768;28;19976;-64
2022/04/27 01:30:00;;;;;;;;;;;17.00;64.10;;;;;;2028921;28;19904;-64
2022/04/27 01:30:59;;;;;;;;;;;17.00;64.20;;;;;;2028946;28;19904;-65
2022/04/27 01:32:00;;;;;;;;;;;17.00;64.50;;;;;;2028922;28;19904;-64
2022/04/27 01:32:58;;;;;;;;;;;17.00;64.00;;;;;;2028867;28;19932;-65
2022/04/27 01:33:57;;;;;;;;;;;17.00;64.50;;;;;;2028808;28;19912;-65
2022/04/27 01:34:55;;;;;;;;;;;16.90;64.00;;;;;;2028642;28;19943;-64
2022/04/27 01:35:54;;;;;;;;;;;17.00;64.20;;;;;;2028593;28;19908;-64
2022/04/27 01:36:54;;;;;;;;;;;17.00;64.10;;;;;;2028661;28;19905;-64
2022/04/27 01:38:03;;;;;;;;;;;17.00;64.30;;;;;;2028793;28;20363;-65
2022/04/27 01:39:01;;;;;;;;;;;17.00;64.20;;;;;;2028818;28;19999;-64
2022/04/27 01:39:59;;;;;;;;;;;17.00;64.30;;;;;;2028797;28;20286;-64
2022/04/27 01:40:58;;;;;;;;;;;17.00;64.40;;;;;;2028736;28;19960;-65
2022/04/27 01:41:56;;;;;;;;;;;17.00;64.00;;;;;;2028752;28;19995;-65
2022/04/27 01:42:55;;;;;;;;;;;17.00;64.00;;;;;;2028765;28;20041;-65
2022/04/27 01:43:53;;;;;;;;;;;17.00;64.00;;;;;;2028878;28;20008;-65
2022/04/27 01:44:52;;;;;;;;;;;17.00;64.40;;;;;;2028850;28;20366;-65
2022/04/27 01:45:50;;;;;;;;;;;17.00;64.10;;;;;;2028716;28;20314;-65
2022/04/27 01:46:50;;;;;;;;;;;17.00;64.20;;;;;;2028031;28;19905;-65
2022/04/27 01:47:48;;;;;;;;;;;17.00;64.20;;;;;;2027940;28;19904;-65
2022/04/27 01:48:47;;;;;;;;;;;17.00;64.40;;;;;;2028778;28;20053;-65
2022/04/27 01:49:45;;;;;;;;;;;17.00;64.10;;;;;;2028806;28;19911;-65
2022/04/27 01:50:44;;;;;;;;;;;17.00;64.40;;;;;;2028691;28;19915;-65
2022/04/27 01:54:16;;;;;;;;;;;17.00;64.30;;;;;;2028883;28;19904;-65
2022/04/27 01:55:15;;;;;;;;;;;17.00;64.80;;;;;;2028750;28;19904;-65
2022/04/27 01:56:15;;;;;;;;;;;16.90;64.30;;;;;;2028756;28;19908;-64
2022/04/27 01:57:13;;;;;;;;;;;17.00;64.70;;;;;;2028770;28;20340;-65
2022/04/27 01:58:11;;;;;;;;;;;16.90;64.30;;;;;;2028779;28;20010;-64
2022/04/27 01:59:10;;;;;;;;;;;17.00;64.30;;;;;;2028690;28;19912;-65
2022/04/27 02:00:09;;;;;;;;;;;17.00;64.20;;;;;;2028575;28;19981;-65
2022/04/27 02:01:11;;;;;;;;;;;17.00;65.50;;;;;;2028779;28;19955;-64
2022/04/27 02:02:10;;;;;;;;;;;16.90;64.50;;;;;;2028758;28;20319;-65
2022/04/27 02:03:08;;;;;;;;;;;16.80;64.30;;;;;;2028768;28;19905;-64
2022/04/27 02:04:07;;;;;;;;;;;16.90;64.40;;;;;;2028654;28;20332;-65
2022/04/27 02:05:06;;;;;;;;;;;16.90;64.40;;;;;;2028549;28;19911;-65
2022/04/27 02:06:04;;;;;;;;;;;16.90;65.10;;;;;;2028847;28;19909;-65
2022/04/27 02:07:02;;;;;;;;;;;16.90;64.40;;;;;;2028609;28;19952;-64
2022/04/27 02:08:01;;;;;;;;;;;16.90;64.60;;;;;;2028540;28;19904;-65
2022/04/27 02:08:59;;;;;;;;;;;17.00;64.30;;;;;;2028638;28;19911;-64
2022/04/27 02:09:58;;;;;;;;;;;17.00;64.20;;;;;;2028543;28;19908;-65
2022/04/27 02:10:56;;;;;;;;;;;16.90;64.30;;;;;;2028597;28;19905;-64
2022/04/27 02:11:55;;;;;;;;;;;16.90;64.30;;;;;;2028521;28;19909;-65
2022/04/27 02:12:53;;;;;;;;;;;16.90;64.60;;;;;;2028679;28;19908;-65
2022/04/27 02:13:54;;;;;;;;;;;16.90;64.30;;;;;;2028638;28;20404;-65
2022/04/27 02:14:53;;;;;;;;;;;17.00;64.40;;;;;;2028736;28;19904;-65
2022/04/27 02:15:52;;;;;;;;;;;16.90;64.30;;;;;;2028754;28;19904;-64
2022/04/27 02:16:50;;;;;;;;;;;16.70;64.30;;;;;;2028723;28;20339;-64
2022/04/27 02:17:50;;;;;;;;;;;16.90;64.40;;;;;;2028605;28;19904;-65
2022/04/27 02:18:49;;;;;;;;;;;16.90;64.40;;;;;;2028731;28;20347;-65
2022/04/27 02:19:47;;;;;;;;;;;16.90;64.50;;;;;;2028628;28;19927;-64
2022/04/27 02:20:46;;;;;;;;;;;16.90;64.60;;;;;;2028746;28;19912;-64
2022/04/27 02:21:44;;;;;;;;;;;16.90;64.60;;;;;;2028678;28;20108;-65
2022/04/27 02:22:42;;;;;;;;;;;17.00;64.40;;;;;;2028560;28;19957;-65
2022/04/27 02:23:41;;;;;;;;;;;16.90;64.40;;;;;;2028538;28;19904;-65
2022/04/27 02:24:40;;;;;;;;;;;16.90;64.70;;;;;;2028531;28;20421;-65
2022/04/27 02:25:38;;;;;;;;;;;16.90;64.60;;;;;;2028705;28;19904;-65
2022/04/27 02:26:37;;;;;;;;;;;16.90;64.50;;;;;;2028651;28;19927;-65
2022/04/27 02:27:35;;;;;;;;;;;16.90;64.50;;;;;;2028736;28;19943;-65
2022/04/27 02:28:34;;;;;;;;;;;16.90;64.70;;;;;;2028589;28;20374;-65
2022/04/27 02:29:32;;;;;;;;;;;16.90;64.70;;;;;;2027877;28;20371;-64
2022/04/27 02:30:31;;;;;;;;;;;16.90;64.60;;;;;;2028849;28;19904;-64
2022/04/27 02:31:29;;;;;;;;;;;16.90;65.10;;;;;;2043300;28;19892;-65
2022/04/27 02:32:28;;;;;;;;;;;16.90;64.70;;;;;;2044204;28;19911;-64
2022/04/27 02:33:28;;;;;;;;;;;16.90;64.60;;;;;;2037922;28;19899;-64
2022/04/27 02:34:26;;;;;;;;;;;16.90;64.90;;;;;;2036199;28;19935;-64
2022/04/27 02:35:25;;;;;;;;;;;16.90;64.50;;;;;;2031732;28;19904;-65
2022/04/27 02:36:23;;;;;;;;;;;16.90;64.80;;;;;;2030890;28;19923;-66
2022/04/27 02:37:21;;;;;;;;;;;16.90;64.70;;;;;;2030883;28;19911;-66
2022/04/27 02:38:20;;;;;;;;;;;16.90;64.60;;;;;;2030487;28;20327;-64
2022/04/27 02:39:18;;;;;;;;;;;16.90;64.60;;;;;;2030555;28;19905;-64
2022/04/27 02:40:17;;;;;;;;;;;16.90;64.60;;;;;;2030479;28;19911;-64
2022/04/27 02:41:15;;;;;;;;;;;16.90;64.90;;;;;;2030164;28;19905;-65
2022/04/27 02:42:14;;;;;;;;;;;16.80;64.50;;;;;;2030283;28;19908;-66
2022/04/27 02:43:12;;;;;;;;;;;16.90;64.60;;;;;;2030201;28;20382;-65
2022/04/27 02:44:11;;;;;;;;;;;16.90;64.60;;;;;;2030207;28;19962;-65
2022/04/27 02:45:09;;;;;;;;;;;16.80;64.70;;;;;;2030100;28;20352;-64
2022/04/27 02:46:07;;;;;;;;;;;16.80;64.60;;;;;;2030059;28;19941;-64
2022/04/27 02:47:06;;;;;;;;;;;16.80;64.50;;;;;;2030132;28;19904;-64
2022/04/27 02:48:04;;;;;;;;;;;16.80;64.70;;;;;;2029837;28;19963;-65
2022/04/27 02:52:10;;;;;;;;;;;16.90;66.00;;;;;;2030191;28;19905;-65
2022/04/27 02:53:02;;;;;;;;;;;16.80;67.20;;;;;;2029785;28;20321;-64
2022/04/27 02:54:00;;;;;;;;;;;16.80;64.80;;;;;;2029914;28;19904;-65
2022/04/27 02:54:59;;;;;;;;;;;16.80;64.60;;;;;;2030133;28;19963;-64
2022/04/27 02:55:57;;;;;;;;;;;16.80;64.90;;;;;;2029966;28;19911;-65
2022/04/27 02:56:56;;;;;;;;;;;16.80;64.60;;;;;;2029838;28;19948;-65
2022/04/27 02:57:54;;;;;;;;;;;16.80;64.80;;;;;;2030018;28;19905;-65
2022/04/27 02:58:52;;;;;;;;;;;16.80;64.90;;;;;;2029963;28;19904;-65
2022/04/27 02:59:51;;;;;;;;;;;16.80;64.90;;;;;;2030172;28;19904;-65
2022/04/27 03:00:50;;;;;;;;;;;16.80;65.10;;;;;;2029944;28;19904;-64
2022/04/27 03:01:49;;;;;;;;;;;16.80;64.90;;;;;;2030219;28;20338;-64
2022/04/27 03:02:47;;;;;;;;;;;16.80;64.90;;;;;;2029986;28;19904;-65
2022/04/27 03:03:46;;;;;;;;;;;16.90;64.90;;;;;;2029918;28;19911;-65
2022/04/27 03:04:44;;;;;;;;;;;16.80;64.90;;;;;;2029845;28;19919;-65
2022/04/27 03:05:44;;;;;;;;;;;16.90;65.10;;;;;;2029771;28;19912;-64
2022/04/27 03:06:43;;;;;;;;;;;16.80;64.50;;;;;;2029960;28;19905;-65
2022/04/27 03:07:41;;;;;;;;;;;16.80;64.40;;;;;;2029948;28;19947;-65
2022/04/27 03:08:39;;;;;;;;;;;16.80;64.60;;;;;;2029639;28;20386;-65
2022/04/27 03:09:38;;;;;;;;;;;16.80;64.50;;;;;;2029740;28;19911;-64
2022/04/27 03:10:36;;;;;;;;;;;16.70;64.50;;;;;;2029796;28;19904;-65
2022/04/27 03:11:35;;;;;;;;;;;16.80;64.80;;;;;;2029809;28;20378;-65
2022/04/27 03:12:34;;;;;;;;;;;16.80;64.80;;;;;;2029782;28;19908;-65
2022/04/27 03:13:33;;;;;;;;;;;16.80;65.00;;;;;;2029721;28;19953;-64
2022/04/27 03:14:31;;;;;;;;;;;16.80;64.60;;;;;;2029899;28;19951;-65
2022/04/27 03:15:32;;;;;;;;;;;16.80;64.80;;;;;;2029700;28;19912;-64
2022/04/27 03:16:30;;;;;;;;;;;16.60;64.40;;;;;;2029811;28;19908;-65
2022/04/27 03:17:29;;;;;;;;;;;16.70;64.40;;;;;;2029832;28;19905;-65
2022/04/27 03:18:27;;;;;;;;;;;16.80;64.70;;;;;;2029778;28;19905;-65
2022/04/27 03:19:26;;;;;;;;;;;16.80;64.70;;;;;;2029770;28;20317;-64
2022/04/27 03:20:24;;;;;;;;;;;16.80;64.70;;;;;;2029663;28;19955;-65
2022/04/27 03:21:22;;;;;;;;;;;16.70;64.80;;;;;;2037043;28;19989;-66
2022/04/27 03:22:22;;;;;;;;;;;16.80;65.00;;;;;;2037290;28;19990;-65
2022/04/27 03:23:21;;;;;;;;;;;16.80;64.90;;;;;;2030212;28;19911;-65
2022/04/27 03:24:20;;;;;;;;;;;16.80;64.80;;;;;;2029916;28;20009;-65
2022/04/27 03:25:18;;;;;;;;;;;16.70;64.50;;;;;;2029095;28;19915;-65
2022/04/27 03:26:17;;;;;;;;;;;16.80;65.00;;;;;;2029123;28;19953;-64
2022/04/27 03:27:15;;;;;;;;;;;16.80;64.80;;;;;;2029891;28;19904;-66
2022/04/27 03:28:13;;;;;;;;;;;16.80;64.70;;;;;;2029607;28;19919;-65
2022/04/27 03:29:12;;;;;;;;;;;16.80;64.50;;;;;;2029659;28;19954;-64
2022/04/27 03:30:10;;;;;;;;;;;16.80;64.80;;;;;;2029550;28;20268;-64
2022/04/27 03:31:09;;;;;;;;;;;16.80;65.20;;;;;;2029803;28;20328;-64
2022/04/27 03:32:09;;;;;;;;;;;16.80;64.60;;;;;;2029620;28;20013;-64
2022/04/27 03:33:08;;;;;;;;;;;16.60;64.50;;;;;;2029451;28;20368;-65
2022/04/27 03:34:06;;;;;;;;;;;16.70;64.80;;;;;;2029572;28;20277;-65
2022/04/27 03:35:05;;;;;;;;;;;16.80;64.60;;;;;;2029484;28;19904;-64
2022/04/27 03:36:03;;;;;;;;;;;16.80;65.60;;;;;;2029549;28;19911;-65
2022/04/27 03:37:02;;;;;;;;;;;16.80;65.20;;;;;;2029472;28;20240;-65
2022/04/27 03:38:01;;;;;;;;;;;16.80;65.00;;;;;;2028946;28;19926;-64
2022/04/27 03:39:00;;;;;;;;;;;16.70;64.70;;;;;;2029095;28;19911;-65
2022/04/27 03:40:00;;;;;;;;;;;16.70;64.60;;;;;;2029588;28;20012;-65
2022/04/27 03:40:58;;;;;;;;;;;16.80;66.80;;;;;;2029623;28;19904;-65
2022/04/27 03:41:57;;;;;;;;;;;16.80;64.70;;;;;;2029596;28;19940;-65
2022/04/27 03:42:55;;;;;;;;;;;16.80;64.70;;;;;;2029529;28;20272;-65
2022/04/27 03:43:54;;;;;;;;;;;16.70;64.70;;;;;;2029459;28;20326;-65
2022/04/27 03:44:52;;;;;;;;;;;16.70;64.40;;;;;;2028771;28;19904;-64
2022/04/27 03:45:51;;;;;;;;;;;16.70;64.50;;;;;;2029352;28;19912;-64
2022/04/27 03:46:49;;;;;;;;;;;16.80;64.50;;;;;;2029500;28;19997;-64
2022/04/27 03:47:48;;;;;;;;;;;16.70;64.40;;;;;;2029609;28;19944;-64
2022/04/27 03:48:47;;;;;;;;;;;16.80;64.80;;;;;;2029578;28;20014;-64
2022/04/27 03:49:45;;;;;;;;;;;16.70;64.60;;;;;;2029465;28;19905;-65
2022/04/27 03:50:44;;;;;;;;;;;16.70;64.70;;;;;;2029534;28;19908;-65
2022/04/27 03:51:42;;;;;;;;;;;16.70;64.70;;;;;;2029666;28;19912;-65
2022/04/27 03:52:41;;;;;;;;;;;16.70;64.60;;;;;;2029486;28;19904;-65
2022/04/27 03:53:39;;;;;;;;;;;16.70;64.70;;;;;;2029508;28;19904;-65
2022/04/27 03:54:38;;;;;;;;;;;16.70;65.00;;;;;;2029490;28;19912;-65
2022/04/27 03:55:36;;;;;;;;;;;16.70;64.60;;;;;;2029422;28;20439;-65
2022/04/27 03:56:35;;;;;;;;;;;16.70;64.80;;;;;;2029252;28;19904;-65
2022/04/27 03:57:33;;;;;;;;;;;16.70;64.70;;;;;;2029584;28;19915;-65
2022/04/27 03:58:32;;;;;;;;;;;16.70;64.60;;;;;;2029505;28;20347;-65
2022/04/27 03:59:30;;;;;;;;;;;16.70;64.70;;;;;;2029528;28;19964;-65
2022/04/27 04:00:29;;;;;;;;;;;16.70;64.80;;;;;;2029436;28;20271;-65
2022/04/27 04:01:28;;;;;;;;;;;16.70;64.80;;;;;;2029441;28;19905;-65
2022/04/27 04:02:26;;;;;;;;;;;16.70;64.80;;;;;;2029358;28;19919;-65
2022/04/27 04:03:25;;;;;;;;;;;16.70;65.20;;;;;;2029611;28;19904;-65
2022/04/27 04:04:24;;;;;;;;;;;16.70;64.60;;;;;;2029477;28;20460;-65
2022/04/27 04:05:22;;;;;;;;;;;16.70;64.60;;;;;;2029178;28;19912;-65
2022/04/27 04:06:21;;;;;;;;;;;16.70;64.80;;;;;;2029364;28;19911;-65
2022/04/27 04:07:19;;;;;;;;;;;16.70;64.90;;;;;;2029431;28;19923;-65
2022/04/27 04:08:17;;;;;;;;;;;16.70;64.70;;;;;;2029297;28;20019;-65
2022/04/27 04:09:16;;;;;;;;;;;16.70;64.70;;;;;;2029525;28;19912;-65
2022/04/27 04:10:14;;;;;;;;;;;16.70;64.60;;;;;;2029326;28;19905;-65
2022/04/27 04:11:13;;;;;;;;;;;16.70;64.70;;;;;;2029732;28;19912;-65
2022/04/27 04:12:13;;;;;;;;;;;16.60;64.50;;;;;;2029532;28;19923;-65
2022/04/27 04:13:12;;;;;;;;;;;16.70;64.90;;;;;;2028749;28;19905;-65
2022/04/27 04:14:10;;;;;;;;;;;16.70;64.80;;;;;;2028771;28;19904;-66
2022/04/27 04:15:09;;;;;;;;;;;16.80;64.70;;;;;;2029411;28;19954;-66
2022/04/27 04:16:07;;;;;;;;;;;16.70;64.90;;;;;;2029465;28;19904;-65
2022/04/27 04:17:06;;;;;;;;;;;16.70;64.40;;;;;;2029440;28;19904;-65
2022/04/27 04:18:05;;;;;;;;;;;16.70;64.30;;;;;;2029588;28;19904;-65
2022/04/27 04:19:04;;;;;;;;;;;16.80;65.80;;;;;;2029411;28;19926;-65
2022/04/27 04:20:03;;;;;;;;;;;16.70;64.40;;;;;;2029332;28;19905;-66
2022/04/27 04:21:02;;;;;;;;;;;16.70;64.70;;;;;;2029325;28;19978;-64
2022/04/27 04:22:00;;;;;;;;;;;16.70;64.40;;;;;;2029469;28;19950;-65
2022/04/27 04:22:59;;;;;;;;;;;16.80;64.90;;;;;;2029195;28;19904;-64
2022/04/27 04:23:57;;;;;;;;;;;16.80;64.50;;;;;;2029444;28;19904;-64
2022/04/27 04:28:48;;;;;;;;;;;16.80;65.90;;;;;;2029435;28;19908;-65
2022/04/27 04:29:46;;;;;;;;;;;16.80;66.70;;;;;;2029462;28;19905;-64
2022/04/27 04:30:45;;;;;;;;;;;16.80;64.80;;;;;;2029395;28;19904;-64
2022/04/27 04:31:43;;;;;;;;;;;16.80;65.40;;;;;;2029590;28;19905;-65
2022/04/27 04:32:42;;;;;;;;;;;16.80;64.80;;;;;;2029439;28;19918;-64
2022/04/27 04:33:40;;;;;;;;;;;16.80;64.70;;;;;;2029310;28;19905;-64
2022/04/27 04:34:39;;;;;;;;;;;16.80;64.60;;;;;;2029339;28;19983;-64
2022/04/27 04:35:37;;;;;;;;;;;16.80;64.60;;;;;;2029537;28;19912;-64
2022/04/27 04:36:36;;;;;;;;;;;16.80;64.80;;;;;;2029447;28;20343;-64
2022/04/27 04:37:34;;;;;;;;;;;16.80;65.00;;;;;;2029578;28;20018;-64
2022/04/27 04:38:33;;;;;;;;;;;16.90;65.30;;;;;;2029580;28;19962;-64
2022/04/27 04:39:31;;;;;;;;;;;16.90;65.20;;;;;;2029675;28;20355;-64
2022/04/27 04:40:30;;;;;;;;;;;16.90;65.10;;;;;;2029649;28;19904;-64
2022/04/27 04:41:28;;;;;;;;;;;16.80;65.10;;;;;;2029976;28;19911;-64
2022/04/27 04:42:27;;;;;;;;;;;16.80;64.90;;;;;;2029865;28;20397;-64
2022/04/27 04:43:25;;;;;;;;;;;16.90;64.80;;;;;;2029932;28;19908;-63
2022/04/27 04:44:23;;;;;;;;;;;17.00;65.20;;;;;;2030154;28;19915;-64
2022/04/27 04:45:23;;;;;;;;;;;17.00;65.10;;;;;;2031371;28;19905;-68
2022/04/27 04:46:22;;;;;;;;;;;16.90;65.00;;;;;;2037803;28;20313;-64
2022/04/27 04:47:21;;;;;;;;;;;16.80;64.90;;;;;;2038061;28;19908;-63
2022/04/27 04:48:22;;;;;;;;;;;16.90;65.30;;;;;;2038112;28;19896;-64
2022/04/27 04:49:20;;;;;;;;;;;16.80;65.30;;;;;;2030612;28;20318;-64
2022/04/27 04:50:19;;;;;;;;;;;16.90;65.20;;;;;;2029224;28;19904;-69
2022/04/27 04:51:17;;;;;;;;;;;17.00;65.60;;;;;;2029218;28;19927;-65
2022/04/27 04:52:16;;;;;;;;;;;16.90;65.30;;;;;;2029125;28;19904;-65
2022/04/27 04:53:14;;;;;;;;;;;16.90;65.50;;;;;;2028862;28;19980;-65
2022/04/27 04:54:12;;;;;;;;;;;16.90;65.70;;;;;;2028191;28;20296;-66
2022/04/27 04:55:11;;;;;;;;;;;16.90;65.70;;;;;;2028169;28;19912;-65
2022/04/27 04:56:09;;;;;;;;;;;16.90;66.00;;;;;;2028215;28;19904;-66
2022/04/27 04:57:08;;;;;;;;;;;16.90;65.70;;;;;;2029021;28;19905;-65
2022/04/27 04:58:06;;;;;;;;;;;16.90;65.80;;;;;;2028939;28;20303;-65
2022/04/27 04:59:05;;;;;;;;;;;16.90;65.80;;;;;;2029010;28;19904;-65
2022/04/27 05:00:04;;;;;;;;;;;16.90;65.70;;;;;;2028990;28;20005;-65
2022/04/27 05:01:03;;;;;;;;;;;16.90;66.50;;;;;;2028927;28;20367;-65
2022/04/27 05:02:01;;;;;;;;;;;16.90;65.60;;;;;;2028740;28;20336;-66
2022/04/27 05:03:00;;;;;;;;;;;16.90;65.70;;;;;;2028712;28;19904;-66
2022/04/27 05:03:58;;;;;;;;;;;16.90;65.80;;;;;;2028973;28;20335;-65
2022/04/27 05:04:57;;;;;;;;;;;16.90;65.70;;;;;;2028760;28;19908;-65
2022/04/27 05:05:55;;;;;;;;;;;16.90;66.30;;;;;;2036510;28;19972;-65
2022/04/27 05:06:54;;;;;;;;;;;16.90;65.70;;;;;;2036338;28;20020;-65
2022/04/27 05:07:52;;;;;;;;;;;16.80;65.50;;;;;;2029385;28;19904;-67
2022/04/27 05:08:51;;;;;;;;;;;16.80;65.40;;;;;;2028781;28;20340;-65
2022/04/27 05:09:49;;;;;;;;;;;16.90;65.60;;;;;;2028873;28;19991;-65
2022/04/27 05:10:47;;;;;;;;;;;16.80;65.60;;;;;;2028843;28;20380;-65
2022/04/27 05:11:47;;;;;;;;;;;16.80;65.50;;;;;;2028987;28;19908;-65
2022/04/27 05:12:45;;;;;;;;;;;16.80;65.40;;;;;;2028834;28;19904;-64
2022/04/27 05:13:44;;;;;;;;;;;16.80;65.50;;;;;;2028994;28;19908;-65
2022/04/27 05:14:42;;;;;;;;;;;16.90;65.40;;;;;;2028943;28;19991;-66
2022/04/27 05:15:41;;;;;;;;;;;16.80;65.40;;;;;;2029112;28;19904;-66
2022/04/27 05:16:40;;;;;;;;;;;16.70;65.60;;;;;;2028892;28;20003;-65
2022/04/27 05:17:39;;;;;;;;;;;16.80;65.60;;;;;;2028906;28;20424;-64
2022/04/27 05:18:37;;;;;;;;;;;16.80;65.80;;;;;;2031321;28;19904;-64
2022/04/27 05:19:37;;;;;;;;;;;16.80;65.30;;;;;;2034989;28;19904;-63
2022/04/27 05:20:37;;;;;;;;;;;16.80;65.10;;;;;;2034899;28;19918;-64
2022/04/27 05:21:35;;;;;;;;;;;16.80;65.20;;;;;;2035386;28;19926;-65
2022/04/27 05:22:34;;;;;;;;;;;16.80;65.00;;;;;;2029745;28;19909;-65
2022/04/27 05:23:33;;;;;;;;;;;16.90;65.20;;;;;;2029614;28;19933;-65
2022/04/27 05:24:31;;;;;;;;;;;16.80;65.00;;;;;;2029748;28;20033;-65
2022/04/27 05:25:30;;;;;;;;;;;16.80;65.00;;;;;;2029907;28;19954;-65
2022/04/27 05:26:28;;;;;;;;;;;16.90;65.00;;;;;;2029110;28;19904;-65
2022/04/27 05:27:27;;;;;;;;;;;16.80;64.70;;;;;;2029125;28;19999;-65
2022/04/27 05:31:53;;;;;;;;;;;16.80;64.60;;;;;;2029250;28;19954;-65
2022/04/27 05:32:18;;;;;;;;;;;16.70;64.10;;;;;;2029233;28;20336;-65
2022/04/27 05:33:17;;;;;;;;;;;16.70;64.20;;;;;;2029045;28;19904;-65
2022/04/27 05:34:16;;;;;;;;;;;16.70;64.80;;;;;;2028875;28;19904;-65
2022/04/27 05:35:14;;;;;;;;;;;16.80;64.20;;;;;;2028874;28;20033;-65
2022/04/27 05:36:13;;;;;;;;;;;16.80;64.50;;;;;;2028936;28;19927;-65
2022/04/27 05:37:12;;;;;;;;;;;16.80;64.50;;;;;;2028837;28;19915;-65
2022/04/27 05:38:10;;;;;;;;;;;16.80;64.30;;;;;;2028805;28;19904;-65
2022/04/27 05:39:09;;;;;;;;;;;16.80;64.20;;;;;;2028074;28;19904;-65
2022/04/27 05:40:08;;;;;;;;;;;16.80;64.30;;;;;;2028088;28;19911;-66
2022/04/27 05:41:07;;;;;;;;;;;16.80;64.50;;;;;;2028734;28;20048;-65
2022/04/27 05:42:06;;;;;;;;;;;16.80;64.20;;;;;;2028570;28;19948;-65
2022/04/27 05:43:05;;;;;;;;;;;16.80;64.50;;;;;;2028677;28;19919;-64
2022/04/27 05:44:03;;;;;;;;;;;16.80;64.30;;;;;;2028900;28;19904;-64
2022/04/27 05:45:05;;;;;;;;;;;16.80;64.10;;;;;;2028695;28;19905;-65
2022/04/27 05:46:05;;;;;;;;;;;16.80;66.00;;;;;;2029067;28;19939;-64
2022/04/27 05:47:04;;;;;;;;;;;16.70;64.00;;;;;;2028710;28;19916;-64
2022/04/27 05:48:03;;;;;;;;;;;16.80;64.70;;;;;;2028744;28;20404;-65
2022/04/27 05:49:02;;;;;;;;;;;16.80;65.00;;;;;;2029086;28;19905;-65
2022/04/27 05:50:00;;;;;;;;;;;16.80;64.50;;;;;;2028849;28;19911;-65
2022/04/27 05:51:01;;;;;;;;;;;16.80;64.70;;;;;;2028856;28;19927;-65
2022/04/27 05:51:59;;;;;;;;;;;16.80;64.30;;;;;;2028798;28;19936;-65
2022/04/27 05:52:58;;;;;;;;;;;16.80;64.60;;;;;;2028794;28;19958;-65
2022/04/27 05:53:56;;;;;;;;;;;16.80;64.20;;;;;;2028186;28;19904;-65